METAR Formatted Surface Weather Observation
Issued by NWS

Home | Current Version | Previous Version | Text Only | Print | Product List | Glossary On
Versions: 1 2 3 4 5 6 7 8 9 10 11 12 13 14 15 16 17 18 19 20 21 22 23 24 25 26 27 28 29 30
000
SAUS43 KMQT 181800 COR
MTRP53
METAR KP53 181756Z AUTO 21007G18KT 04/M01 A2980 RMK AO1 PK WND
22026/1705 SLP100 T00391011 10039 21022 58020



USA.gov is the U.S. government's official web portal to all federal, state and local government web resources and services.